createdAt,value
2023-04-15T00:00:03.574Z,5.43
2023-04-15T00:01:03.614Z,5.40
2023-04-15T00:02:03.652Z,5.37
2023-04-15T00:03:03.618Z,5.35
2023-04-15T00:04:03.727Z,5.35
2023-04-15T00:05:03.578Z,5.34
2023-04-15T00:06:03.516Z,5.34
2023-04-15T00:07:03.433Z,5.31
2023-04-15T00:08:03.540Z,5.35
2023-04-15T00:09:03.730Z,5.31
2023-04-15T00:10:03.502Z,5.35
2023-04-15T00:11:03.500Z,5.34
2023-04-15T00:12:03.514Z,5.35
2023-04-15T00:13:03.518Z,5.32
2023-04-15T00:14:03.529Z,5.32
2023-04-15T00:15:03.584Z,5.31
2023-04-15T00:16:03.448Z,5.31
2023-04-15T00:17:03.550Z,5.35
2023-04-15T00:18:03.474Z,5.34
2023-04-15T00:19:03.543Z,5.35
2023-04-15T00:20:03.500Z,5.31
2023-04-15T00:21:03.372Z,5.25
2023-04-15T00:22:03.321Z,5.27
2023-04-15T00:23:03.341Z,5.27
2023-04-15T00:24:03.174Z,5.27
2023-04-15T00:25:03.327Z,5.25
2023-04-15T00:26:03.432Z,5.30
2023-04-15T00:27:03.299Z,5.28
2023-04-15T00:28:03.277Z,5.28
2023-04-15T00:29:03.266Z,5.30
2023-04-15T00:30:03.254Z,5.32
2023-04-15T00:31:03.468Z,5.31
2023-04-15T00:32:03.276Z,5.30
2023-04-15T00:33:03.195Z,5.30
2023-04-15T00:34:03.183Z,5.30
2023-04-15T00:35:03.221Z,5.30
2023-04-15T00:36:03.180Z,5.30
2023-04-15T00:37:03.224Z,5.30
2023-04-15T00:38:03.160Z,5.31
2023-04-15T00:39:03.138Z,5.35
2023-04-15T00:40:03.123Z,5.34
2023-04-15T00:41:03.134Z,5.35
2023-04-15T00:42:03.158Z,5.34
2023-04-15T00:43:03.227Z,5.32
2023-04-15T00:44:03.073Z,5.31
2023-04-15T00:45:03.077Z,5.34
2023-04-15T00:46:03.081Z,5.31
2023-04-15T00:47:03.128Z,5.34
2023-04-15T00:48:03.158Z,5.34
2023-04-15T00:49:03.038Z,5.32
2023-04-15T00:50:03.068Z,5.34
2023-04-15T00:51:03.095Z,5.35
2023-04-15T00:52:03.070Z,5.35
2023-04-15T00:53:03.064Z,5.38
2023-04-15T00:54:02.977Z,5.34
2023-04-15T00:55:02.970Z,5.32
2023-04-15T00:56:02.963Z,5.34
2023-04-15T00:57:02.977Z,5.35
2023-04-15T00:58:03.066Z,5.37
2023-04-15T00:59:02.967Z,5.37
2023-04-15T01:00:02.981Z,5.34
2023-04-15T01:01:02.936Z,5.38
2023-04-15T01:02:03.036Z,5.37
2023-04-15T01:03:03.060Z,5.40
2023-04-15T01:04:03.006Z,5.38
2023-04-15T01:05:02.859Z,5.37
2023-04-15T01:06:03.985Z,5.37
2023-04-15T01:07:02.831Z,5.37
2023-04-15T01:08:02.933Z,5.38
2023-04-15T01:09:03.297Z,5.43
2023-04-15T01:10:02.863Z,5.40
2023-04-15T01:11:02.863Z,5.37
2023-04-15T01:12:02.845Z,5.40
2023-04-15T01:13:02.901Z,5.40
2023-04-15T01:14:02.813Z,5.41
2023-04-15T01:15:02.738Z,5.41
2023-04-15T01:16:02.800Z,5.41
2023-04-15T01:17:02.867Z,5.41
2023-04-15T01:18:02.749Z,5.37
2023-04-15T01:19:03.161Z,5.35
2023-04-15T01:20:02.748Z,5.37
2023-04-15T01:21:02.682Z,5.35
2023-04-15T01:22:02.687Z,5.32
2023-04-15T01:23:02.691Z,5.35
2023-04-15T01:24:02.671Z,5.35
2023-04-15T01:25:02.761Z,5.37
2023-04-15T01:26:02.675Z,5.34
2023-04-15T01:27:02.666Z,5.35
2023-04-15T01:28:02.656Z,5.32
2023-04-15T01:29:02.869Z,5.28
2023-04-15T01:30:02.662Z,5.31
2023-04-15T01:31:02.711Z,5.30
2023-04-15T01:32:02.657Z,5.31
2023-04-15T01:33:02.508Z,5.31
2023-04-15T01:34:02.663Z,5.28
2023-04-15T01:35:02.670Z,5.32
2023-04-15T01:36:02.585Z,5.30
2023-04-15T01:37:02.609Z,5.31
2023-04-15T01:38:02.615Z,5.35
2023-04-15T01:39:02.803Z,5.37
2023-04-15T01:40:02.491Z,5.37
2023-04-15T01:41:02.624Z,5.40
2023-04-15T01:42:02.508Z,5.40
2023-04-15T01:43:02.496Z,5.38
2023-04-15T01:44:02.486Z,5.34
2023-04-15T01:45:02.583Z,5.35
2023-04-15T01:46:02.573Z,5.37
2023-04-15T01:47:02.489Z,5.38
2023-04-15T01:48:02.661Z,5.38
2023-04-15T01:49:02.717Z,5.40
2023-04-15T01:50:02.386Z,5.40
2023-04-15T01:51:02.460Z,5.40
2023-04-15T01:52:02.401Z,5.43
2023-04-15T01:53:02.466Z,5.41
2023-04-15T01:54:02.494Z,5.41
2023-04-15T01:55:02.420Z,5.35
2023-04-15T01:56:02.412Z,5.35
2023-04-15T01:57:02.388Z,5.38
2023-04-15T01:58:02.302Z,5.37
2023-04-15T01:59:02.597Z,5.40
2023-04-15T02:00:02.308Z,5.40
2023-04-15T02:01:02.364Z,5.37
2023-04-15T02:02:02.422Z,5.40
2023-04-15T02:03:02.431Z,5.40
2023-04-15T02:04:02.344Z,5.35
2023-04-15T02:05:02.234Z,5.37
2023-04-15T02:06:02.156Z,5.34
2023-04-15T02:07:02.324Z,5.37
2023-04-15T02:08:02.242Z,5.34
2023-04-15T02:09:02.456Z,5.32
2023-04-15T02:10:02.175Z,5.31
2023-04-15T02:11:02.168Z,5.32
2023-04-15T02:12:02.270Z,5.35
2023-04-15T02:13:02.194Z,5.32
2023-04-15T02:14:02.285Z,5.32
2023-04-15T02:15:02.142Z,5.34
2023-04-15T02:16:02.156Z,5.35
2023-04-15T02:17:02.175Z,5.35
2023-04-15T02:18:02.136Z,5.35
2023-04-15T02:19:02.324Z,5.34
2023-04-15T02:20:02.121Z,5.34
2023-04-15T02:21:02.048Z,5.35
2023-04-15T02:22:02.057Z,5.38
2023-04-15T02:23:02.082Z,5.34
2023-04-15T02:24:02.134Z,5.34
2023-04-15T02:25:02.096Z,5.34
2023-04-15T02:26:02.049Z,5.31
2023-04-15T02:27:02.039Z,5.32
2023-04-15T02:28:02.048Z,5.28
2023-04-15T02:29:02.151Z,5.28
2023-04-15T02:30:01.991Z,5.32
2023-04-15T02:31:01.954Z,5.31
2023-04-15T02:32:02.052Z,5.31
2023-04-15T02:33:02.263Z,5.28
2023-04-15T02:34:02.018Z,5.25
2023-04-15T02:35:02.044Z,5.25
2023-04-15T02:36:01.985Z,5.20
2023-04-15T02:37:01.993Z,5.19
2023-04-15T02:38:01.940Z,5.19
2023-04-15T02:39:02.102Z,5.20
2023-04-15T02:40:01.825Z,5.19
2023-04-15T02:41:01.959Z,5.17
2023-04-15T02:42:01.868Z,5.22
2023-04-15T02:43:01.940Z,5.16
2023-04-15T02:44:01.869Z,5.19
2023-04-15T02:45:01.859Z,5.16
2023-04-15T02:46:01.972Z,5.19
2023-04-15T02:47:01.878Z,5.17
2023-04-15T02:48:01.872Z,5.19
2023-04-15T02:49:01.949Z,5.16
2023-04-15T02:50:01.758Z,5.20
2023-04-15T02:51:01.874Z,5.19
2023-04-15T02:52:01.843Z,5.20
2023-04-15T02:53:01.871Z,5.19
2023-04-15T02:54:01.715Z,5.22
2023-04-15T02:55:01.709Z,5.23
2023-04-15T02:56:01.736Z,5.20
2023-04-15T02:57:01.538Z,5.23
2023-04-15T02:58:01.736Z,5.27
2023-04-15T02:59:01.943Z,5.23
2023-04-15T03:00:01.711Z,5.25
2023-04-15T03:01:01.656Z,5.22
2023-04-15T03:02:01.795Z,5.25
2023-04-15T03:03:01.860Z,5.27
2023-04-15T03:04:01.712Z,5.27
2023-04-15T03:05:01.612Z,5.27
2023-04-15T03:06:01.638Z,5.27
2023-04-15T03:07:01.655Z,5.25
2023-04-15T03:08:01.632Z,5.28
2023-04-15T03:09:01.877Z,5.25
2023-04-15T03:10:01.554Z,5.23
2023-04-15T03:11:01.603Z,5.27
2023-04-15T03:12:01.672Z,5.27
2023-04-15T03:13:01.617Z,5.27
2023-04-15T03:14:01.508Z,5.23
2023-04-15T03:15:01.551Z,5.22
2023-04-15T03:16:01.560Z,5.27
2023-04-15T03:17:01.450Z,5.23
2023-04-15T03:18:01.495Z,5.22
2023-04-15T03:19:01.721Z,5.23
2023-04-15T03:20:01.453Z,5.23
2023-04-15T03:21:01.463Z,5.25
2023-04-15T03:22:01.435Z,5.22
2023-04-15T03:23:01.449Z,5.22
2023-04-15T03:24:01.521Z,5.20
2023-04-15T03:25:01.389Z,5.22
2023-04-15T03:26:01.410Z,5.20
2023-04-15T03:27:01.407Z,5.16
2023-04-15T03:28:01.421Z,5.19
2023-04-15T03:29:01.691Z,5.22
2023-04-15T03:30:01.467Z,5.16
2023-04-15T03:31:01.415Z,5.16
2023-04-15T03:32:01.333Z,5.17
2023-04-15T03:33:01.378Z,5.20
2023-04-15T03:34:01.400Z,5.16
2023-04-15T03:35:01.401Z,5.14
2023-04-15T03:36:01.311Z,5.14
2023-04-15T03:37:01.316Z,5.12
2023-04-15T03:38:01.246Z,5.12
2023-04-15T03:39:01.555Z,5.12
2023-04-15T03:40:01.301Z,5.12
2023-04-15T03:41:01.269Z,5.07
2023-04-15T03:42:01.259Z,5.07
2023-04-15T03:43:01.326Z,5.05
2023-04-15T03:44:01.231Z,5.05
2023-04-15T03:45:01.228Z,5.05
2023-04-15T03:46:02.039Z,5.05
2023-04-15T03:47:01.122Z,5.02
2023-04-15T03:48:15.532Z,5.04
2023-04-15T03:49:01.268Z,5.04
2023-04-15T03:50:01.063Z,5.04
2023-04-15T03:51:01.209Z,5.04
2023-04-15T03:52:01.125Z,5.05
2023-04-15T03:53:01.137Z,5.09
2023-04-15T03:54:01.134Z,5.04
2023-04-15T03:55:01.201Z,5.04
2023-04-15T03:56:01.128Z,5.05
2023-04-15T03:57:01.053Z,5.04
2023-04-15T03:58:01.046Z,5.07
2023-04-15T03:59:01.197Z,5.04
2023-04-15T04:00:01.122Z,5.09
2023-04-15T04:01:01.022Z,5.07
2023-04-15T04:02:01.037Z,5.09
2023-04-15T04:03:01.236Z,5.09
2023-04-15T04:04:01.084Z,5.07
2023-04-15T04:05:01.004Z,5.10
2023-04-15T04:06:00.779Z,5.07
2023-04-15T04:07:00.935Z,5.10
2023-04-15T04:08:00.945Z,5.10
2023-04-15T04:09:01.048Z,5.12
2023-04-15T04:10:00.722Z,5.12
2023-04-15T04:11:00.918Z,5.13
2023-04-15T04:12:00.858Z,5.14
2023-04-15T04:13:00.843Z,5.14
2023-04-15T04:14:00.925Z,5.16
2023-04-15T04:15:00.832Z,5.17
2023-04-15T04:16:00.917Z,5.19
2023-04-15T04:17:00.846Z,5.20
2023-04-15T04:18:00.825Z,5.19
2023-04-15T04:19:01.034Z,5.19
2023-04-15T04:20:00.711Z,5.20
2023-04-15T04:21:00.799Z,5.22
2023-04-15T04:22:00.723Z,5.20
2023-04-15T04:23:00.783Z,5.25
2023-04-15T04:24:00.715Z,5.28
2023-04-15T04:25:00.790Z,5.27
2023-04-15T04:26:00.699Z,5.25
2023-04-15T04:27:00.687Z,5.31
2023-04-15T04:28:00.686Z,5.28
2023-04-15T04:29:01.054Z,5.30
2023-04-15T04:30:00.683Z,5.32
2023-04-15T04:31:00.679Z,5.34
2023-04-15T04:32:00.670Z,5.38
2023-04-15T04:33:00.729Z,5.38
2023-04-15T04:34:00.689Z,5.35
2023-04-15T04:35:00.606Z,5.38
2023-04-15T04:36:00.618Z,5.38
2023-04-15T04:37:00.612Z,5.37
2023-04-15T04:38:00.611Z,5.38
2023-04-15T04:39:00.897Z,5.41
2023-04-15T04:40:00.561Z,5.46
2023-04-15T04:41:00.546Z,5.45
2023-04-15T04:42:00.531Z,5.45
2023-04-15T04:43:00.509Z,5.50
2023-04-15T04:44:00.491Z,5.50
2023-04-15T04:45:00.564Z,5.53
2023-04-15T04:46:00.527Z,5.53
2023-04-15T04:47:00.527Z,5.56
2023-04-15T04:48:00.528Z,5.57
2023-04-15T04:49:00.660Z,5.59
2023-04-15T04:50:00.599Z,5.59
2023-04-15T04:51:00.444Z,5.60
2023-04-15T04:52:00.431Z,5.63
2023-04-15T04:53:00.407Z,5.66
2023-04-15T04:54:01.856Z,5.67
2023-04-15T04:55:00.519Z,5.71
2023-04-15T04:56:00.361Z,5.74
2023-04-15T04:57:00.373Z,5.74
2023-04-15T04:58:00.353Z,5.81
2023-04-15T04:59:00.588Z,5.82
2023-04-15T05:00:00.322Z,5.89
2023-04-15T05:01:00.357Z,5.86
2023-04-15T05:02:00.386Z,5.91
2023-04-15T05:03:00.627Z,5.91
2023-04-15T05:04:00.494Z,5.95
2023-04-15T05:05:00.303Z,5.96
2023-04-15T05:06:00.256Z,6.01
2023-04-15T05:07:00.369Z,6.04
2023-04-15T05:08:00.320Z,6.07
2023-04-15T05:09:00.398Z,6.07
2023-04-15T05:10:00.303Z,6.13
2023-04-15T05:11:00.323Z,6.16
2023-04-15T05:12:00.339Z,6.16
2023-04-15T05:13:00.356Z,6.16
2023-04-15T05:14:00.190Z,6.21
2023-04-15T05:15:00.203Z,6.22
2023-04-15T05:16:00.271Z,6.26
2023-04-15T05:17:00.203Z,6.30
2023-04-15T05:18:00.334Z,6.28
2023-04-15T05:19:00.379Z,6.32
2023-04-15T05:20:00.156Z,6.33
2023-04-15T05:21:00.152Z,6.38
2023-04-15T05:22:00.171Z,6.41
2023-04-15T05:23:00.166Z,6.35
2023-04-15T05:24:00.111Z,6.38
2023-04-15T05:25:00.085Z,6.43
2023-04-15T05:26:00.099Z,6.41
2023-04-15T05:27:00.097Z,6.43
2023-04-15T05:28:00.095Z,6.41
2023-04-15T05:29:00.420Z,6.47
2023-04-15T05:30:00.068Z,6.46
2023-04-15T05:31:00.082Z,6.50
2023-04-15T05:31:59.868Z,6.47
2023-04-15T05:32:59.960Z,6.51
2023-04-15T05:34:00.002Z,6.53
2023-04-15T05:34:59.846Z,6.54
2023-04-15T05:35:59.855Z,6.59
2023-04-15T05:36:59.819Z,6.63
2023-04-15T05:37:59.968Z,6.65
2023-04-15T05:39:00.173Z,6.69
2023-04-15T05:39:59.973Z,6.69
2023-04-15T05:40:59.954Z,6.71
2023-04-15T05:41:59.797Z,6.69
2023-04-15T05:42:59.939Z,6.71
2023-04-15T05:43:59.976Z,6.73
2023-04-15T05:44:59.924Z,6.76
2023-04-15T05:45:59.980Z,6.77
2023-04-15T05:46:59.871Z,6.76
2023-04-15T05:47:59.872Z,6.76
2023-04-15T05:49:00.155Z,6.84
2023-04-15T05:49:59.910Z,6.86
2023-04-15T05:50:59.919Z,6.84
2023-04-15T05:51:59.922Z,6.86
2023-04-15T05:52:59.846Z,6.89
2023-04-15T05:53:59.766Z,6.84
2023-04-15T05:54:59.794Z,6.83
2023-04-15T05:55:59.747Z,6.84
2023-04-15T05:56:59.847Z,6.90
2023-04-15T05:57:59.783Z,6.90
2023-04-15T05:58:59.961Z,6.94
2023-04-15T05:59:59.748Z,6.95
2023-04-15T06:00:59.678Z,6.95
2023-04-15T06:01:59.594Z,6.95
2023-04-15T06:02:59.621Z,6.97
2023-04-15T06:03:59.786Z,6.95
2023-04-15T06:04:59.589Z,6.94
2023-04-15T06:05:59.533Z,6.95
2023-04-15T06:06:59.519Z,6.95
2023-04-15T06:07:59.552Z,6.99
2023-04-15T06:08:59.536Z,6.98
2023-04-15T06:09:59.571Z,7.01
2023-04-15T06:10:59.475Z,6.98
2023-04-15T06:11:59.454Z,6.99
2023-04-15T06:12:59.627Z,7.04
2023-04-15T06:13:59.441Z,7.08
2023-04-15T06:15:00.215Z,7.04
2023-04-15T06:15:59.541Z,7.04
2023-04-15T06:16:59.525Z,7.07
2023-04-15T06:17:59.443Z,7.07
2023-04-15T06:18:59.502Z,7.02
2023-04-15T06:19:59.402Z,7.07
2023-04-15T06:20:59.383Z,7.05
2023-04-15T06:21:59.369Z,7.05
2023-04-15T06:22:59.361Z,7.07
2023-04-15T06:23:59.421Z,7.09
2023-04-15T06:24:59.376Z,7.12
2023-04-15T06:25:59.346Z,7.08
2023-04-15T06:26:59.324Z,7.12
2023-04-15T06:27:59.307Z,7.15
2023-04-15T06:28:59.476Z,7.08
2023-04-15T06:29:59.543Z,7.12
2023-04-15T06:30:59.323Z,7.15
2023-04-15T06:31:59.400Z,7.12
2023-04-15T06:32:59.448Z,7.12
2023-04-15T06:33:59.427Z,7.07
2023-04-15T06:34:59.275Z,7.05
2023-04-15T06:35:59.279Z,7.07
2023-04-15T06:36:59.353Z,7.08
2023-04-15T06:37:59.260Z,7.15
2023-04-15T06:38:59.504Z,7.13
2023-04-15T06:39:59.355Z,7.13
2023-04-15T06:40:59.276Z,7.13
2023-04-15T06:41:59.278Z,7.15
2023-04-15T06:42:59.284Z,7.17
2023-04-15T06:43:59.360Z,7.15
2023-04-15T06:44:59.314Z,7.16
2023-04-15T06:45:59.195Z,7.17
2023-04-15T06:46:59.233Z,7.16
2023-04-15T06:47:59.270Z,7.16
2023-04-15T06:48:59.353Z,7.16
2023-04-15T06:49:59.118Z,7.15
2023-04-15T06:50:59.136Z,7.16
2023-04-15T06:51:59.136Z,7.16
2023-04-15T06:52:59.093Z,7.17
2023-04-15T06:53:58.995Z,7.19
2023-04-15T06:54:59.290Z,7.22
2023-04-15T06:55:59.253Z,7.22
2023-04-15T06:56:59.012Z,7.23
2023-04-15T06:57:59.032Z,7.27
2023-04-15T06:58:59.105Z,7.23
2023-04-15T06:59:58.997Z,7.29
2023-04-15T07:00:59.039Z,7.26
2023-04-15T07:01:59.061Z,7.27
2023-04-15T07:02:58.924Z,7.24
2023-04-15T07:03:58.951Z,7.22
2023-04-15T07:04:58.925Z,7.29
2023-04-15T07:05:58.893Z,7.27
2023-04-15T07:06:58.899Z,7.24
2023-04-15T07:07:58.994Z,7.29
2023-04-15T07:08:58.823Z,7.29
2023-04-15T07:09:58.843Z,7.35
2023-04-15T07:10:58.966Z,7.34
2023-04-15T07:11:58.917Z,7.31
2023-04-15T07:12:58.936Z,7.32
2023-04-15T07:13:58.920Z,7.34
2023-04-15T07:14:58.790Z,7.35
2023-04-15T07:15:58.790Z,7.34
2023-04-15T07:16:58.845Z,7.32
2023-04-15T07:17:58.951Z,7.32
2023-04-15T07:18:58.841Z,7.32
2023-04-15T07:19:58.866Z,7.27
2023-04-15T07:20:58.859Z,7.26
2023-04-15T07:21:58.766Z,7.23
2023-04-15T07:22:58.726Z,7.20
2023-04-15T07:23:58.684Z,7.19
2023-04-15T07:24:58.822Z,7.23
2023-04-15T07:25:58.672Z,7.19
2023-04-15T07:27:00.322Z,7.20
2023-04-15T07:27:58.798Z,7.24
2023-04-15T07:28:58.720Z,7.26
2023-04-15T07:29:58.689Z,7.20
2023-04-15T07:30:58.657Z,7.20
2023-04-15T07:31:58.657Z,7.22
2023-04-15T07:32:58.672Z,7.19
2023-04-15T07:33:58.677Z,7.19
2023-04-15T07:34:58.659Z,7.24
2023-04-15T07:35:58.556Z,7.23
2023-04-15T07:36:58.605Z,7.24
2023-04-15T07:37:58.840Z,7.23
2023-04-15T07:38:58.926Z,7.29
2023-04-15T07:39:58.549Z,7.23
2023-04-15T07:40:58.523Z,7.24
2023-04-15T07:41:58.661Z,7.26
2023-04-15T07:42:58.711Z,7.23
2023-04-15T07:43:58.679Z,7.22
2023-04-15T07:44:58.656Z,7.23
2023-04-15T07:45:58.733Z,7.23
2023-04-15T07:46:58.687Z,7.22
2023-04-15T07:47:58.647Z,7.20
2023-04-15T07:48:58.642Z,7.22
2023-04-15T07:49:58.725Z,7.23
2023-04-15T07:50:58.411Z,7.26
2023-04-15T07:51:58.414Z,7.24
2023-04-15T07:52:58.416Z,7.26
2023-04-15T07:53:58.618Z,7.29
2023-04-15T07:54:58.674Z,7.34
2023-04-15T07:55:58.424Z,7.29
2023-04-15T07:56:58.468Z,7.26
2023-04-15T07:57:58.511Z,7.29
2023-04-15T07:58:58.611Z,7.26
2023-04-15T07:59:58.617Z,7.31
2023-04-15T08:00:58.400Z,7.37
2023-04-15T08:01:58.515Z,7.37
2023-04-15T08:02:58.635Z,7.38
2023-04-15T08:03:58.594Z,7.42
2023-04-15T08:04:58.497Z,7.41
2023-04-15T08:05:58.454Z,7.44
2023-04-15T08:06:58.409Z,7.38
2023-04-15T08:07:58.428Z,7.45
2023-04-15T08:08:58.420Z,7.41
2023-04-15T08:09:58.406Z,7.45
2023-04-15T08:10:58.293Z,7.47
2023-04-15T08:11:58.394Z,7.50
2023-04-15T08:12:58.387Z,7.56
2023-04-15T08:13:58.374Z,7.52
2023-04-15T08:14:58.162Z,7.50
2023-04-15T08:15:58.243Z,7.49
2023-04-15T08:16:58.312Z,7.47
2023-04-15T08:17:58.336Z,7.50
2023-04-15T08:18:58.293Z,7.59
2023-04-15T08:19:58.246Z,7.58
2023-04-15T08:20:58.311Z,7.56
2023-04-15T08:21:58.225Z,7.56
2023-04-15T08:22:58.216Z,7.56
2023-04-15T08:23:58.200Z,7.62
2023-04-15T08:24:58.202Z,7.60
2023-04-15T08:25:58.185Z,7.63
2023-04-15T08:26:58.072Z,7.58
2023-04-15T08:27:58.037Z,7.59
2023-04-15T08:28:58.200Z,7.60
2023-04-15T08:29:58.045Z,7.55
2023-04-15T08:30:57.996Z,7.56
2023-04-15T08:31:58.077Z,7.63
2023-04-15T08:32:58.180Z,7.67
2023-04-15T08:33:58.598Z,7.69
2023-04-15T08:34:58.127Z,7.71
2023-04-15T08:35:58.091Z,7.72
2023-04-15T08:36:58.187Z,7.69
2023-04-15T08:37:58.058Z,7.69
2023-04-15T08:38:58.091Z,7.74
2023-04-15T08:39:58.060Z,7.74
2023-04-15T08:40:57.955Z,7.74
2023-04-15T08:41:58.004Z,7.74
2023-04-15T08:42:58.138Z,7.74
2023-04-15T08:43:57.960Z,7.77
2023-04-15T08:44:58.016Z,7.78
2023-04-15T08:45:57.990Z,7.85
2023-04-15T08:46:58.017Z,7.82
2023-04-15T08:47:58.080Z,7.78
2023-04-15T08:48:57.998Z,7.84
2023-04-15T08:49:58.023Z,7.87
2023-04-15T08:50:57.932Z,7.84
2023-04-15T08:51:57.912Z,7.85
2023-04-15T08:52:57.884Z,7.87
2023-04-15T08:53:57.931Z,7.85
2023-04-15T08:54:57.908Z,7.84
2023-04-15T08:55:58.124Z,7.90
2023-04-15T08:56:57.922Z,7.84
2023-04-15T08:57:57.866Z,7.85
2023-04-15T08:58:57.946Z,7.90
2023-04-15T08:59:57.850Z,7.85
2023-04-15T09:00:58.006Z,7.77
2023-04-15T09:01:57.893Z,7.72
2023-04-15T09:02:57.857Z,7.71
2023-04-15T09:03:57.910Z,7.72
2023-04-15T09:04:57.900Z,7.63
2023-04-15T09:05:57.755Z,7.60
2023-04-15T09:06:57.607Z,7.66
2023-04-15T09:07:57.771Z,7.66
2023-04-15T09:08:57.726Z,7.67
2023-04-15T09:09:57.783Z,7.69
2023-04-15T09:10:57.606Z,7.69
2023-04-15T09:11:57.580Z,7.72
2023-04-15T09:12:57.714Z,7.74
2023-04-15T09:13:57.777Z,7.75
2023-04-15T09:14:57.751Z,7.72
2023-04-15T09:15:57.766Z,7.78
2023-04-15T09:16:57.772Z,7.79
2023-04-15T09:17:57.766Z,7.82
2023-04-15T09:18:57.680Z,7.78
2023-04-15T09:19:57.695Z,7.85
2023-04-15T09:20:57.617Z,7.81
2023-04-15T09:21:59.075Z,7.85
2023-04-15T09:22:57.627Z,7.90
2023-04-15T09:23:57.624Z,7.90
2023-04-15T09:24:57.620Z,7.90
2023-04-15T09:25:57.691Z,7.92
2023-04-15T09:26:57.599Z,7.93
2023-04-15T09:27:57.646Z,7.99
2023-04-15T09:28:57.559Z,7.97
2023-04-15T09:29:57.369Z,8.00
2023-04-15T09:30:57.593Z,7.96
2023-04-15T09:31:57.479Z,7.99
2023-04-15T09:32:57.609Z,7.96
2023-04-15T09:33:57.478Z,7.97
2023-04-15T09:34:57.554Z,8.02
2023-04-15T09:35:57.297Z,7.97
2023-04-15T09:36:57.540Z,7.99
2023-04-15T09:37:57.460Z,7.99
2023-04-15T09:38:57.467Z,7.96
2023-04-15T09:39:57.462Z,7.99
2023-04-15T09:40:57.532Z,8.00
2023-04-15T09:41:57.428Z,7.96
2023-04-15T09:42:57.456Z,7.93
2023-04-15T09:43:57.269Z,7.93
2023-04-15T09:44:57.239Z,7.89
2023-04-15T09:45:57.341Z,7.89
2023-04-15T09:46:57.208Z,7.90
2023-04-15T09:47:58.838Z,7.89
2023-04-15T09:48:57.190Z,7.87
2023-04-15T09:49:57.259Z,7.84
2023-04-15T09:50:57.302Z,7.81
2023-04-15T09:52:05.098Z,7.85
2023-04-15T09:52:57.262Z,7.82
2023-04-15T09:53:57.207Z,7.87
2023-04-15T09:54:57.154Z,7.89
2023-04-15T09:55:57.231Z,7.93
2023-04-15T09:56:57.081Z,7.99
2023-04-15T09:57:57.094Z,8.00
2023-04-15T09:58:57.178Z,8.02
2023-04-15T09:59:57.070Z,8.02
2023-04-15T10:00:57.278Z,8.04
2023-04-15T10:01:57.101Z,8.08
2023-04-15T10:02:57.148Z,8.11
2023-04-15T10:03:57.090Z,8.08
2023-04-15T10:04:57.070Z,8.08
2023-04-15T10:05:57.693Z,8.15
2023-04-15T10:06:57.080Z,8.14
2023-04-15T10:07:57.029Z,8.12
2023-04-15T10:08:57.012Z,8.12
2023-04-15T10:09:56.974Z,8.08
2023-04-15T10:10:56.994Z,8.14
2023-04-15T10:11:56.916Z,8.12
2023-04-15T10:12:56.950Z,8.10
2023-04-15T10:13:56.905Z,8.10
2023-04-15T10:14:56.973Z,8.17
2023-04-15T10:15:56.989Z,8.15
2023-04-15T10:16:56.945Z,8.20
2023-04-15T10:17:57.018Z,8.20
2023-04-15T10:18:56.903Z,8.21
2023-04-15T10:19:56.916Z,8.20
2023-04-15T10:20:56.956Z,8.20
2023-04-15T10:21:56.838Z,8.21
2023-04-15T10:22:56.830Z,8.25
2023-04-15T10:23:56.858Z,8.22
2023-04-15T10:24:56.862Z,8.21
2023-04-15T10:25:56.822Z,8.28
2023-04-15T10:26:56.791Z,8.28
2023-04-15T10:27:56.768Z,8.26
2023-04-15T10:28:58.361Z,8.21
2023-04-15T10:29:57.074Z,8.20
2023-04-15T10:30:57.130Z,8.17
2023-04-15T10:31:56.994Z,8.21
2023-04-15T10:32:57.013Z,8.18
2023-04-15T10:33:56.962Z,8.20
2023-04-15T10:34:56.706Z,8.20
2023-04-15T10:35:57.055Z,8.21
2023-04-15T10:36:56.944Z,8.20
2023-04-15T10:37:56.670Z,8.25
2023-04-15T10:38:56.872Z,8.22
2023-04-15T10:39:56.834Z,8.18
2023-04-15T10:40:56.792Z,8.21
2023-04-15T10:41:56.884Z,8.22
2023-04-15T10:42:56.747Z,8.21
2023-04-15T10:43:56.598Z,8.21
2023-04-15T10:44:56.681Z,8.22
2023-04-15T10:45:56.592Z,8.25
2023-04-15T10:46:56.820Z,8.25
2023-04-15T10:47:56.633Z,8.28
2023-04-15T10:48:56.573Z,8.21
2023-04-15T10:49:56.540Z,8.28
2023-04-15T10:50:56.557Z,8.26
2023-04-15T10:51:56.964Z,8.26
2023-04-15T10:52:56.678Z,8.28
2023-04-15T10:53:56.519Z,8.22
2023-04-15T10:54:56.498Z,8.26
2023-04-15T10:55:56.489Z,8.25
2023-04-15T10:56:56.514Z,8.26
2023-04-15T10:57:56.642Z,8.29
2023-04-15T10:58:56.637Z,8.35
2023-04-15T10:59:56.615Z,8.28
2023-04-15T11:00:56.593Z,8.28
2023-04-15T11:01:57.042Z,8.28
2023-04-15T11:02:56.851Z,8.28
2023-04-15T11:03:56.627Z,8.26
2023-04-15T11:04:56.606Z,8.28
2023-04-15T11:05:56.427Z,8.28
2023-04-15T11:06:56.353Z,8.22
2023-04-15T11:07:56.490Z,8.30
2023-04-15T11:08:56.644Z,8.33
2023-04-15T11:09:56.451Z,8.36
2023-04-15T11:10:56.545Z,8.37
2023-04-15T11:11:56.531Z,8.39
2023-04-15T11:12:56.432Z,8.42
2023-04-15T11:13:56.330Z,8.37
2023-04-15T11:14:56.477Z,8.44
2023-04-15T11:15:56.572Z,8.39
2023-04-15T11:16:56.391Z,8.45
2023-04-15T11:17:56.306Z,8.40
2023-04-15T11:18:56.245Z,8.40
2023-04-15T11:19:56.229Z,8.40
2023-04-15T11:20:56.268Z,8.37
2023-04-15T11:21:56.272Z,8.37
2023-04-15T11:23:12.977Z,8.45
2023-04-15T11:23:56.400Z,8.40
2023-04-15T11:24:56.246Z,8.40
2023-04-15T11:25:56.195Z,8.37
2023-04-15T11:26:56.336Z,8.39
2023-04-15T11:27:56.337Z,8.39
2023-04-15T11:28:56.157Z,8.37
2023-04-15T11:29:56.119Z,8.39
2023-04-15T11:30:56.172Z,8.36
2023-04-15T11:31:56.152Z,8.37
2023-04-15T11:32:56.198Z,8.40
2023-04-15T11:33:56.088Z,8.39
2023-04-15T11:34:56.069Z,8.39
2023-04-15T11:35:56.070Z,8.37
2023-04-15T11:36:56.297Z,8.42
2023-04-15T11:37:56.021Z,8.40
2023-04-15T11:38:56.158Z,8.44
2023-04-15T11:39:56.056Z,8.42
2023-04-15T11:40:56.048Z,8.45
2023-04-15T11:41:56.063Z,8.47
2023-04-15T11:42:56.081Z,8.47
2023-04-15T11:43:56.012Z,8.44
2023-04-15T11:44:56.045Z,8.48
2023-04-15T11:45:56.014Z,8.50
2023-04-15T11:46:56.004Z,8.48
2023-04-15T11:47:56.675Z,8.48
2023-04-15T11:48:55.929Z,8.42
2023-04-15T11:49:55.993Z,8.50
2023-04-15T11:50:55.940Z,8.50
2023-04-15T11:51:55.931Z,8.47
2023-04-15T11:52:55.910Z,8.51
2023-04-15T11:53:55.944Z,8.54
2023-04-15T11:54:55.954Z,8.63
2023-04-15T11:55:55.861Z,8.60
2023-04-15T11:56:55.905Z,8.60
2023-04-15T11:57:55.817Z,8.63
2023-04-15T11:58:55.974Z,8.62
2023-04-15T11:59:55.818Z,8.60
2023-04-15T12:00:55.805Z,8.55
2023-04-15T12:01:55.871Z,8.55
2023-04-15T12:02:55.947Z,8.55
2023-04-15T12:03:56.057Z,8.58
2023-04-15T12:04:55.942Z,8.57
2023-04-15T12:05:55.781Z,8.58
2023-04-15T12:06:55.810Z,8.65
2023-04-15T12:07:55.733Z,8.57
2023-04-15T12:08:55.882Z,8.60
2023-04-15T12:09:55.766Z,8.60
2023-04-15T12:10:55.733Z,8.60
2023-04-15T12:11:55.855Z,8.65
2023-04-15T12:12:55.751Z,8.68
2023-04-15T12:13:55.661Z,8.65
2023-04-15T12:14:55.738Z,8.68
2023-04-15T12:15:55.820Z,8.73
2023-04-15T12:16:58.039Z,8.71
2023-04-15T12:17:55.732Z,8.69
2023-04-15T12:18:55.661Z,8.71
2023-04-15T12:19:55.606Z,8.72
2023-04-15T12:20:55.639Z,8.71
2023-04-15T12:21:56.146Z,8.71
2023-04-15T12:22:55.618Z,8.69
2023-04-15T12:23:55.666Z,8.60
2023-04-15T12:24:55.908Z,8.63
2023-04-15T12:25:55.781Z,8.65
2023-04-15T12:26:55.796Z,8.58
2023-04-15T12:27:55.799Z,8.62
2023-04-15T12:28:55.559Z,8.66
2023-04-15T12:29:55.514Z,8.63
2023-04-15T12:30:55.731Z,8.63
2023-04-15T12:31:55.580Z,8.63
2023-04-15T12:32:55.639Z,8.68
2023-04-15T12:33:55.508Z,8.68
2023-04-15T12:34:55.477Z,8.65
2023-04-15T12:35:55.444Z,8.65
2023-04-15T12:36:55.688Z,8.65
2023-04-15T12:37:55.505Z,8.63
2023-04-15T12:38:55.447Z,8.62
2023-04-15T12:39:55.430Z,8.60
2023-04-15T12:40:55.452Z,8.57
2023-04-15T12:41:55.377Z,8.62
2023-04-15T12:42:55.400Z,8.62
2023-04-15T12:43:55.350Z,8.62
2023-04-15T12:44:55.440Z,8.66
2023-04-15T12:45:55.504Z,8.65
2023-04-15T12:46:55.589Z,8.66
2023-04-15T12:47:55.398Z,8.71
2023-04-15T12:48:55.330Z,8.69
2023-04-15T12:49:55.391Z,8.66
2023-04-15T12:50:55.325Z,8.72
2023-04-15T12:51:55.323Z,8.72
2023-04-15T12:52:55.665Z,8.69
2023-04-15T12:53:55.262Z,8.69
2023-04-15T12:54:55.277Z,8.68
2023-04-15T12:55:55.264Z,8.72
2023-04-15T12:56:55.400Z,8.71
2023-04-15T12:57:55.544Z,8.68
2023-04-15T12:58:55.223Z,8.73
2023-04-15T12:59:55.250Z,8.73
2023-04-15T13:00:55.279Z,8.73
2023-04-15T13:01:55.330Z,8.78
2023-04-15T13:02:55.353Z,8.79
2023-04-15T13:03:55.245Z,8.79
2023-04-15T13:04:55.335Z,8.81
2023-04-15T13:05:55.256Z,8.79
2023-04-15T13:06:55.323Z,8.81
2023-04-15T13:07:55.299Z,8.83
2023-04-15T13:08:58.412Z,8.83
2023-04-15T13:09:55.210Z,8.81
2023-04-15T13:10:55.233Z,8.86
2023-04-15T13:11:55.228Z,8.87
2023-04-15T13:12:55.113Z,8.83
2023-04-15T13:13:55.249Z,8.83
2023-04-15T13:14:55.257Z,8.81
2023-04-15T13:15:55.301Z,8.84
2023-04-15T13:16:54.990Z,8.78
2023-04-15T13:17:55.199Z,8.87